sensor_id;sensor_type;location;lat;lon;timestamp;temperature;humidity
73133;DHT22;61320;52.008;4.530;2023-04-03T00:00:04;6.58;67.77
73133;DHT22;61320;52.008;4.530;2023-04-03T00:02:30;6.54;68.11
73133;DHT22;61320;52.008;4.530;2023-04-03T00:04:55;6.53;67.88
73133;DHT22;61320;52.008;4.530;2023-04-03T00:07:21;6.52;68.09
73133;DHT22;61320;52.008;4.530;2023-04-03T00:09:46;6.49;68.13
73133;DHT22;61320;52.008;4.530;2023-04-03T00:12:12;6.49;68.49
73133;DHT22;61320;52.008;4.530;2023-04-03T00:14:37;6.43;68.26
73133;DHT22;61320;52.008;4.530;2023-04-03T00:17:02;6.42;68.41
73133;DHT22;61320;52.008;4.530;2023-04-03T00:19:28;6.42;68.29
73133;DHT22;61320;52.008;4.530;2023-04-03T00:21:53;6.39;68.15
73133;DHT22;61320;52.008;4.530;2023-04-03T00:24:19;6.34;68.21
73133;DHT22;61320;52.008;4.530;2023-04-03T00:26:44;6.34;68.25
73133;DHT22;61320;52.008;4.530;2023-04-03T00:29:10;6.29;68.34
73133;DHT22;61320;52.008;4.530;2023-04-03T00:31:35;6.23;68.58
73133;DHT22;61320;52.008;4.530;2023-04-03T00:34:01;6.23;68.68
73133;DHT22;61320;52.008;4.530;2023-04-03T00:36:26;6.22;68.42
73133;DHT22;61320;52.008;4.530;2023-04-03T00:38:52;6.22;68.16
73133;DHT22;61320;52.008;4.530;2023-04-03T00:41:17;6.16;68.23
73133;DHT22;61320;52.008;4.530;2023-04-03T00:43:43;6.09;68.35
73133;DHT22;61320;52.008;4.530;2023-04-03T00:46:08;6.03;68.15
73133;DHT22;61320;52.008;4.530;2023-04-03T00:48:35;6.06;68.58
73133;DHT22;61320;52.008;4.530;2023-04-03T00:51:02;6.05;68.16
73133;DHT22;61320;52.008;4.530;2023-04-03T00:53:35;6.06;68.27
73133;DHT22;61320;52.008;4.530;2023-04-03T00:56:06;5.99;68.21
73133;DHT22;61320;52.008;4.530;2023-04-03T00:58:41;5.97;68.24
73133;DHT22;61320;52.008;4.530;2023-04-03T01:01:13;5.92;67.86
73133;DHT22;61320;52.008;4.530;2023-04-03T01:03:39;5.91;67.70
73133;DHT22;61320;52.008;4.530;2023-04-03T01:06:05;5.94;68.25
73133;DHT22;61320;52.008;4.530;2023-04-03T01:08:31;5.90;68.10
73133;DHT22;61320;52.008;4.530;2023-04-03T01:10:57;5.84;67.91
73133;DHT22;61320;52.008;4.530;2023-04-03T01:13:26;5.84;68.26
73133;DHT22;61320;52.008;4.530;2023-04-03T01:15:52;5.84;68.15
73133;DHT22;61320;52.008;4.530;2023-04-03T01:18:18;5.79;68.29
73133;DHT22;61320;52.008;4.530;2023-04-03T01:26:27;5.79;67.97
73133;DHT22;61320;52.008;4.530;2023-04-03T01:28:54;5.78;68.13
73133;DHT22;61320;52.008;4.530;2023-04-03T01:33:55;5.72;68.10
73133;DHT22;61320;52.008;4.530;2023-04-03T01:36:24;5.77;68.27
73133;DHT22;61320;52.008;4.530;2023-04-03T01:38:50;5.71;68.12
73133;DHT22;61320;52.008;4.530;2023-04-03T01:41:16;5.70;67.94
73133;DHT22;61320;52.008;4.530;2023-04-03T01:43:42;5.65;67.88
73133;DHT22;61320;52.008;4.530;2023-04-03T01:46:08;5.64;68.01
73133;DHT22;61320;52.008;4.530;2023-04-03T01:48:34;5.67;68.39
73133;DHT22;61320;52.008;4.530;2023-04-03T01:51:00;5.64;68.46
73133;DHT22;61320;52.008;4.530;2023-04-03T01:53:25;5.64;68.40
73133;DHT22;61320;52.008;4.530;2023-04-03T01:55:51;5.63;68.01
73133;DHT22;61320;52.008;4.530;2023-04-03T01:58:16;5.58;68.27
73133;DHT22;61320;52.008;4.530;2023-04-03T02:00:42;5.57;67.90
73133;DHT22;61320;52.008;4.530;2023-04-03T02:03:07;5.54;68.36
73133;DHT22;61320;52.008;4.530;2023-04-03T02:05:33;5.47;68.44
73133;DHT22;61320;52.008;4.530;2023-04-03T02:07:58;5.43;68.44
73133;DHT22;61320;52.008;4.530;2023-04-03T02:10:24;5.37;68.55
73133;DHT22;61320;52.008;4.530;2023-04-03T02:12:50;5.34;68.63
73133;DHT22;61320;52.008;4.530;2023-04-03T02:15:16;5.30;68.66
73133;DHT22;61320;52.008;4.530;2023-04-03T02:17:41;5.27;68.81
73133;DHT22;61320;52.008;4.530;2023-04-03T02:20:07;5.23;69.02
73133;DHT22;61320;52.008;4.530;2023-04-03T02:22:33;5.22;68.82
73133;DHT22;61320;52.008;4.530;2023-04-03T02:24:59;5.19;68.90
73133;DHT22;61320;52.008;4.530;2023-04-03T02:27:24;5.18;68.90
73133;DHT22;61320;52.008;4.530;2023-04-03T02:29:50;5.12;69.07
73133;DHT22;61320;52.008;4.530;2023-04-03T02:32:15;5.08;69.27
73133;DHT22;61320;52.008;4.530;2023-04-03T02:34:40;5.11;69.29
73133;DHT22;61320;52.008;4.530;2023-04-03T02:37:06;5.09;69.23
73133;DHT22;61320;52.008;4.530;2023-04-03T02:39:31;5.06;69.19
73133;DHT22;61320;52.008;4.530;2023-04-03T02:41:57;5.00;69.13
73133;DHT22;61320;52.008;4.530;2023-04-03T02:44:22;4.97;69.15
73133;DHT22;61320;52.008;4.530;2023-04-03T02:46:49;4.93;69.42
73133;DHT22;61320;52.008;4.530;2023-04-03T02:49:14;4.91;69.33
73133;DHT22;61320;52.008;4.530;2023-04-03T02:51:40;4.86;69.60
73133;DHT22;61320;52.008;4.530;2023-04-03T02:54:06;4.89;69.75
73133;DHT22;61320;52.008;4.530;2023-04-03T02:56:32;4.81;69.78
73133;DHT22;61320;52.008;4.530;2023-04-03T02:58:57;4.84;69.88
73133;DHT22;61320;52.008;4.530;2023-04-03T03:01:23;4.79;70.05
73133;DHT22;61320;52.008;4.530;2023-04-03T03:03:48;4.74;69.90
73133;DHT22;61320;52.008;4.530;2023-04-03T03:06:16;4.71;70.03
73133;DHT22;61320;52.008;4.530;2023-04-03T03:08:42;4.67;70.07
73133;DHT22;61320;52.008;4.530;2023-04-03T03:11:08;4.67;70.12
73133;DHT22;61320;52.008;4.530;2023-04-03T03:13:35;4.62;70.18
73133;DHT22;61320;52.008;4.530;2023-04-03T03:16:02;4.58;70.21
73133;DHT22;61320;52.008;4.530;2023-04-03T03:18:27;4.54;70.20
73133;DHT22;61320;52.008;4.530;2023-04-03T03:20:56;4.51;70.20
73133;DHT22;61320;52.008;4.530;2023-04-03T03:23:23;4.47;70.33
73133;DHT22;61320;52.008;4.530;2023-04-03T03:25:55;4.44;70.36
73133;DHT22;61320;52.008;4.530;2023-04-03T03:28:21;4.38;70.35
73133;DHT22;61320;52.008;4.530;2023-04-03T03:30:47;4.38;70.46
73133;DHT22;61320;52.008;4.530;2023-04-03T03:33:12;4.34;70.46
73133;DHT22;61320;52.008;4.530;2023-04-03T03:35:38;4.33;70.54
73133;DHT22;61320;52.008;4.530;2023-04-03T03:38:03;4.33;70.41
73133;DHT22;61320;52.008;4.530;2023-04-03T03:40:28;4.27;70.45
73133;DHT22;61320;52.008;4.530;2023-04-03T03:42:54;4.21;70.50
73133;DHT22;61320;52.008;4.530;2023-04-03T03:45:20;4.21;70.45
73133;DHT22;61320;52.008;4.530;2023-04-03T03:47:45;4.18;70.54
73133;DHT22;61320;52.008;4.530;2023-04-03T03:50:10;4.13;70.39
73133;DHT22;61320;52.008;4.530;2023-04-03T03:52:36;4.10;70.66
73133;DHT22;61320;52.008;4.530;2023-04-03T03:55:02;4.07;70.59
73133;DHT22;61320;52.008;4.530;2023-04-03T03:57:27;4.09;70.57
73133;DHT22;61320;52.008;4.530;2023-04-03T03:59:54;4.09;70.66
73133;DHT22;61320;52.008;4.530;2023-04-03T04:02:20;4.09;70.78
73133;DHT22;61320;52.008;4.530;2023-04-03T04:04:45;4.06;70.63
73133;DHT22;61320;52.008;4.530;2023-04-03T04:07:11;4.02;70.71
73133;DHT22;61320;52.008;4.530;2023-04-03T04:09:36;4.00;70.69
73133;DHT22;61320;52.008;4.530;2023-04-03T04:12:02;3.99;70.76
73133;DHT22;61320;52.008;4.530;2023-04-03T04:14:28;4.02;70.70
73133;DHT22;61320;52.008;4.530;2023-04-03T04:16:53;3.95;70.70
73133;DHT22;61320;52.008;4.530;2023-04-03T04:19:18;3.96;70.90
73133;DHT22;61320;52.008;4.530;2023-04-03T04:21:44;3.92;70.87
73133;DHT22;61320;52.008;4.530;2023-04-03T04:24:10;3.92;70.95
73133;DHT22;61320;52.008;4.530;2023-04-03T04:26:36;3.85;70.84
73133;DHT22;61320;52.008;4.530;2023-04-03T04:29:01;3.83;70.93
73133;DHT22;61320;52.008;4.530;2023-04-03T04:31:27;3.82;70.88
73133;DHT22;61320;52.008;4.530;2023-04-03T04:33:53;3.81;70.82
73133;DHT22;61320;52.008;4.530;2023-04-03T04:36:18;3.79;71.04
73133;DHT22;61320;52.008;4.530;2023-04-03T04:38:44;3.78;71.14
73133;DHT22;61320;52.008;4.530;2023-04-03T04:41:10;3.78;71.07
73133;DHT22;61320;52.008;4.530;2023-04-03T04:43:36;3.76;71.06
73133;DHT22;61320;52.008;4.530;2023-04-03T04:46:09;3.76;71.11
73133;DHT22;61320;52.008;4.530;2023-04-03T04:48:37;3.75;71.16
73133;DHT22;61320;52.008;4.530;2023-04-03T04:51:03;3.78;71.13
73133;DHT22;61320;52.008;4.530;2023-04-03T04:53:29;3.78;71.22
73133;DHT22;61320;52.008;4.530;2023-04-03T04:55:54;3.78;71.20
73133;DHT22;61320;52.008;4.530;2023-04-03T04:58:20;3.75;71.15
73133;DHT22;61320;52.008;4.530;2023-04-03T05:00:46;3.74;71.16
73133;DHT22;61320;52.008;4.530;2023-04-03T05:03:12;3.74;71.13
73133;DHT22;61320;52.008;4.530;2023-04-03T05:05:38;3.72;71.19
73133;DHT22;61320;52.008;4.530;2023-04-03T05:08:04;3.68;71.22
73133;DHT22;61320;52.008;4.530;2023-04-03T05:12:57;3.62;71.36
73133;DHT22;61320;52.008;4.530;2023-04-03T05:15:22;3.62;71.44
73133;DHT22;61320;52.008;4.530;2023-04-03T05:17:48;3.56;71.39
73133;DHT22;61320;52.008;4.530;2023-04-03T05:20:14;3.58;71.43
73133;DHT22;61320;52.008;4.530;2023-04-03T05:22:39;3.61;71.69
73133;DHT22;61320;52.008;4.530;2023-04-03T05:25:05;3.55;71.62
73133;DHT22;61320;52.008;4.530;2023-04-03T05:27:31;3.55;71.57
73133;DHT22;61320;52.008;4.530;2023-04-03T05:29:57;3.51;71.67
73133;DHT22;61320;52.008;4.530;2023-04-03T05:32:24;3.54;71.75
73133;DHT22;61320;52.008;4.530;2023-04-03T05:34:51;3.50;71.87
73133;DHT22;61320;52.008;4.530;2023-04-03T05:37:17;3.51;71.89
73133;DHT22;61320;52.008;4.530;2023-04-03T05:39:42;3.51;71.93
73133;DHT22;61320;52.008;4.530;2023-04-03T05:42:08;3.54;71.94
73133;DHT22;61320;52.008;4.530;2023-04-03T05:44:33;3.51;72.03
73133;DHT22;61320;52.008;4.530;2023-04-03T05:46:59;3.51;72.21
73133;DHT22;61320;52.008;4.530;2023-04-03T05:49:24;3.55;72.24
73133;DHT22;61320;52.008;4.530;2023-04-03T05:51:50;3.54;72.15
73133;DHT22;61320;52.008;4.530;2023-04-03T05:54:24;3.58;72.27
73133;DHT22;61320;52.008;4.530;2023-04-03T05:56:50;3.64;72.31
73133;DHT22;61320;52.008;4.530;2023-04-03T05:59:17;3.65;72.28
73133;DHT22;61320;52.008;4.530;2023-04-03T06:01:42;3.66;72.47
73133;DHT22;61320;52.008;4.530;2023-04-03T06:04:07;3.72;72.50
73133;DHT22;61320;52.008;4.530;2023-04-03T06:06:52;3.71;72.21
73133;DHT22;61320;52.008;4.530;2023-04-03T06:09:21;3.72;72.67
73133;DHT22;61320;52.008;4.530;2023-04-03T06:11:47;3.82;72.66
73133;DHT22;61320;52.008;4.530;2023-04-03T06:14:12;3.85;72.57
73133;DHT22;61320;52.008;4.530;2023-04-03T06:16:38;3.85;72.46
73133;DHT22;61320;52.008;4.530;2023-04-03T06:19:05;3.90;72.49
73133;DHT22;61320;52.008;4.530;2023-04-03T06:21:32;3.96;72.68
73133;DHT22;61320;52.008;4.530;2023-04-03T06:23:57;3.97;72.91
73133;DHT22;61320;52.008;4.530;2023-04-03T06:26:23;4.00;72.99
73133;DHT22;61320;52.008;4.530;2023-04-03T06:28:48;4.06;73.15
73133;DHT22;61320;52.008;4.530;2023-04-03T06:31:15;4.16;72.91
73133;DHT22;61320;52.008;4.530;2023-04-03T06:33:40;4.24;72.93
73133;DHT22;61320;52.008;4.530;2023-04-03T06:36:06;4.30;72.81
73133;DHT22;61320;52.008;4.530;2023-04-03T06:38:33;4.37;72.77
73133;DHT22;61320;52.008;4.530;2023-04-03T06:40:59;4.47;72.75
73133;DHT22;61320;52.008;4.530;2023-04-03T06:43:25;4.53;72.59
73133;DHT22;61320;52.008;4.530;2023-04-03T06:45:53;4.62;72.11
73133;DHT22;61320;52.008;4.530;2023-04-03T06:48:18;4.71;71.91
73133;DHT22;61320;52.008;4.530;2023-04-03T06:50:44;4.84;71.66
73133;DHT22;61320;52.008;4.530;2023-04-03T06:53:10;4.97;70.94
73133;DHT22;61320;52.008;4.530;2023-04-03T06:55:35;5.09;70.24
73133;DHT22;61320;52.008;4.530;2023-04-03T06:58:02;5.19;69.72
73133;DHT22;61320;52.008;4.530;2023-04-03T07:00:28;5.27;70.02
73133;DHT22;61320;52.008;4.530;2023-04-03T07:02:54;5.43;69.65
73133;DHT22;61320;52.008;4.530;2023-04-03T07:05:21;5.55;68.97
73133;DHT22;61320;52.008;4.530;2023-04-03T07:07:47;5.85;69.37
73133;DHT22;61320;52.008;4.530;2023-04-03T07:10:12;6.49;67.52
73133;DHT22;61320;52.008;4.530;2023-04-03T07:12:38;7.45;65.98
73133;DHT22;61320;52.008;4.530;2023-04-03T07:15:05;8.44;63.12
73133;DHT22;61320;52.008;4.530;2023-04-03T07:17:30;9.31;60.44
73133;DHT22;61320;52.008;4.530;2023-04-03T07:19:56;9.83;59.31
73133;DHT22;61320;52.008;4.530;2023-04-03T07:22:22;10.37;56.58
73133;DHT22;61320;52.008;4.530;2023-04-03T07:24:47;10.27;55.36
73133;DHT22;61320;52.008;4.530;2023-04-03T07:27:13;9.96;57.16
73133;DHT22;61320;52.008;4.530;2023-04-03T07:29:38;9.75;57.82
73133;DHT22;61320;52.008;4.530;2023-04-03T07:32:05;9.51;57.68
73133;DHT22;61320;52.008;4.530;2023-04-03T07:34:32;9.35;58.67
73133;DHT22;61320;52.008;4.530;2023-04-03T07:36:58;9.41;56.35
73133;DHT22;61320;52.008;4.530;2023-04-03T07:39:24;9.34;57.51
73133;DHT22;61320;52.008;4.530;2023-04-03T07:41:50;9.17;58.05
73133;DHT22;61320;52.008;4.530;2023-04-03T07:44:17;9.00;58.67
73133;DHT22;61320;52.008;4.530;2023-04-03T07:46:42;8.96;59.14
73133;DHT22;61320;52.008;4.530;2023-04-03T07:49:08;8.87;59.75
73133;DHT22;61320;52.008;4.530;2023-04-03T07:51:33;8.68;58.99
73133;DHT22;61320;52.008;4.530;2023-04-03T07:53:59;8.55;59.08
73133;DHT22;61320;52.008;4.530;2023-04-03T07:56:25;8.50;59.46
73133;DHT22;61320;52.008;4.530;2023-04-03T07:58:50;8.41;60.07
73133;DHT22;61320;52.008;4.530;2023-04-03T08:01:16;8.42;60.16
73133;DHT22;61320;52.008;4.530;2023-04-03T08:03:42;8.38;59.34
73133;DHT22;61320;52.008;4.530;2023-04-03T08:06:08;8.38;60.54
73133;DHT22;61320;52.008;4.530;2023-04-03T08:08:34;8.32;59.01
73133;DHT22;61320;52.008;4.530;2023-04-03T08:11:01;8.22;58.94
73133;DHT22;61320;52.008;4.530;2023-04-03T08:13:28;8.24;59.28
73133;DHT22;61320;52.008;4.530;2023-04-03T08:15:54;8.31;58.58
73133;DHT22;61320;52.008;4.530;2023-04-03T08:18:21;8.42;58.92
73133;DHT22;61320;52.008;4.530;2023-04-03T08:20:50;8.42;58.96
73133;DHT22;61320;52.008;4.530;2023-04-03T08:23:15;8.56;58.50
73133;DHT22;61320;52.008;4.530;2023-04-03T08:25:42;8.66;58.53
73133;DHT22;61320;52.008;4.530;2023-04-03T08:28:09;8.68;58.59
73133;DHT22;61320;52.008;4.530;2023-04-03T08:30:39;8.68;58.87
73133;DHT22;61320;52.008;4.530;2023-04-03T08:33:08;8.62;58.93
73133;DHT22;61320;52.008;4.530;2023-04-03T08:35:39;8.69;58.44
73133;DHT22;61320;52.008;4.530;2023-04-03T08:38:05;8.72;58.55
73133;DHT22;61320;52.008;4.530;2023-04-03T08:40:31;8.75;57.47
73133;DHT22;61320;52.008;4.530;2023-04-03T08:45:50;8.77;56.28
73133;DHT22;61320;52.008;4.530;2023-04-03T08:48:33;8.80;54.42
73133;DHT22;61320;52.008;4.530;2023-04-03T08:51:14;8.97;55.81
73133;DHT22;61320;52.008;4.530;2023-04-03T08:53:46;9.31;55.42
73133;DHT22;61320;52.008;4.530;2023-04-03T08:56:18;9.44;55.30
73133;DHT22;61320;52.008;4.530;2023-04-03T08:58:51;9.48;54.28
73133;DHT22;61320;52.008;4.530;2023-04-03T09:01:37;9.58;53.47
73133;DHT22;61320;52.008;4.530;2023-04-03T09:04:12;9.67;52.26
73133;DHT22;61320;52.008;4.530;2023-04-03T09:06:38;9.83;52.29
73133;DHT22;61320;52.008;4.530;2023-04-03T09:14:53;10.51;47.43
73133;DHT22;61320;52.008;4.530;2023-04-03T09:22:55;10.68;44.08
73133;DHT22;61320;52.008;4.530;2023-04-03T09:25:24;10.79;43.72
73133;DHT22;61320;52.008;4.530;2023-04-03T09:27:55;10.96;42.27
73133;DHT22;61320;52.008;4.530;2023-04-03T09:30:26;11.36;43.11
73133;DHT22;61320;52.008;4.530;2023-04-03T09:32:55;11.37;41.53
73133;DHT22;61320;52.008;4.530;2023-04-03T09:35:36;11.43;41.18
73133;DHT22;61320;52.008;4.530;2023-04-03T09:40:39;11.73;38.26
73133;DHT22;61320;52.008;4.530;2023-04-03T09:45:45;11.95;36.76
73133;DHT22;61320;52.008;4.530;2023-04-03T09:55:54;13.58;36.01
73133;DHT22;61320;52.008;4.530;2023-04-03T10:01:01;14.65;33.30
73133;DHT22;61320;52.008;4.530;2023-04-03T10:03:34;14.96;34.18
73133;DHT22;61320;52.008;4.530;2023-04-03T10:06:03;15.26;33.21
73133;DHT22;61320;52.008;4.530;2023-04-03T10:08:33;15.47;33.27
73133;DHT22;61320;52.008;4.530;2023-04-03T10:11:12;15.68;34.29
73133;DHT22;61320;52.008;4.530;2023-04-03T10:14:16;15.74;31.86
73133;DHT22;61320;52.008;4.530;2023-04-03T10:16:49;15.88;31.17
73133;DHT22;61320;52.008;4.530;2023-04-03T10:19:34;16.30;32.06
73133;DHT22;61320;52.008;4.530;2023-04-03T10:22:17;16.90;30.19
73133;DHT22;61320;52.008;4.530;2023-04-03T10:27:26;17.56;30.71
73133;DHT22;61320;52.008;4.530;2023-04-03T10:30:31;18.07;28.94
73133;DHT22;61320;52.008;4.530;2023-04-03T10:33:33;18.61;28.21
73133;DHT22;61320;52.008;4.530;2023-04-03T10:38:46;19.06;27.25
73133;DHT22;61320;52.008;4.530;2023-04-03T10:41:38;19.47;25.91
73133;DHT22;61320;52.008;4.530;2023-04-03T10:44:16;19.70;24.12
73133;DHT22;61320;52.008;4.530;2023-04-03T10:46:52;19.87;23.92
73133;DHT22;61320;52.008;4.530;2023-04-03T10:52:17;20.24;24.45
73133;DHT22;61320;52.008;4.530;2023-04-03T10:57:37;20.94;24.24
73133;DHT22;61320;52.008;4.530;2023-04-03T11:00:19;21.12;24.01
73133;DHT22;61320;52.008;4.530;2023-04-03T11:02:59;21.21;23.55
73133;DHT22;61320;52.008;4.530;2023-04-03T11:08:36;20.97;23.58
73133;DHT22;61320;52.008;4.530;2023-04-03T11:11:09;20.63;23.04
73133;DHT22;61320;52.008;4.530;2023-04-03T11:14:03;20.33;23.37
73133;DHT22;61320;52.008;4.530;2023-04-03T11:16:43;19.97;24.17
73133;DHT22;61320;52.008;4.530;2023-04-03T11:19:21;19.70;23.33
73133;DHT22;61320;52.008;4.530;2023-04-03T11:22:05;19.19;23.84
73133;DHT22;61320;52.008;4.530;2023-04-03T11:24:33;18.92;25.13
73133;DHT22;61320;52.008;4.530;2023-04-03T11:27:05;19.06;23.98
73133;DHT22;61320;52.008;4.530;2023-04-03T11:29:38;19.23;23.44
73133;DHT22;61320;52.008;4.530;2023-04-03T11:34:54;19.22;25.61
73133;DHT22;61320;52.008;4.530;2023-04-03T11:37:45;19.02;23.44
73133;DHT22;61320;52.008;4.530;2023-04-03T11:42:43;19.02;22.42
73133;DHT22;61320;52.008;4.530;2023-04-03T11:45:27;18.99;24.43
73133;DHT22;61320;52.008;4.530;2023-04-03T11:50:44;18.29;21.81
73133;DHT22;61320;52.008;4.530;2023-04-03T12:16:43;18.04;23.05
73133;DHT22;61320;52.008;4.530;2023-04-03T12:24:28;17.93;21.41
73133;DHT22;61320;52.008;4.530;2023-04-03T12:32:24;17.42;22.99
73133;DHT22;61320;52.008;4.530;2023-04-03T12:35:20;17.48;22.67
73133;DHT22;61320;52.008;4.530;2023-04-03T12:48:55;16.83;24.65
73133;DHT22;61320;52.008;4.530;2023-04-03T12:54:00;16.01;26.09
73133;DHT22;61320;52.008;4.530;2023-04-03T12:56:29;15.56;26.63
73133;DHT22;61320;52.008;4.530;2023-04-03T12:59:16;15.07;28.02
73133;DHT22;61320;52.008;4.530;2023-04-03T13:01:43;14.74;27.74
73133;DHT22;61320;52.008;4.530;2023-04-03T13:04:11;14.56;28.51
73133;DHT22;61320;52.008;4.530;2023-04-03T13:06:41;14.54;29.22
73133;DHT22;61320;52.008;4.530;2023-04-03T13:09:29;14.36;29.94
73133;DHT22;61320;52.008;4.530;2023-04-03T13:12:13;14.16;28.90
73133;DHT22;61320;52.008;4.530;2023-04-03T13:14:38;14.02;30.09
73133;DHT22;61320;52.008;4.530;2023-04-03T13:17:14;13.89;30.44
73133;DHT22;61320;52.008;4.530;2023-04-03T13:19:41;13.85;30.79
73133;DHT22;61320;52.008;4.530;2023-04-03T13:22:34;13.76;29.84
73133;DHT22;61320;52.008;4.530;2023-04-03T13:25:08;13.68;30.47
73133;DHT22;61320;52.008;4.530;2023-04-03T13:27:35;13.70;31.15
73133;DHT22;61320;52.008;4.530;2023-04-03T13:30:04;13.78;32.35
73133;DHT22;61320;52.008;4.530;2023-04-03T13:32:32;13.87;31.34
73133;DHT22;61320;52.008;4.530;2023-04-03T13:34:58;13.73;30.25
73133;DHT22;61320;52.008;4.530;2023-04-03T13:37:31;13.76;30.86
73133;DHT22;61320;52.008;4.530;2023-04-03T13:42:30;13.95;30.45
73133;DHT22;61320;52.008;4.530;2023-04-03T13:47:42;14.10;30.40
73133;DHT22;61320;52.008;4.530;2023-04-03T13:52:46;14.06;32.01
73133;DHT22;61320;52.008;4.530;2023-04-03T13:55:16;14.10;31.85
73133;DHT22;61320;52.008;4.530;2023-04-03T13:57:54;14.17;31.31
73133;DHT22;61320;52.008;4.530;2023-04-03T14:03:14;14.28;31.40
73133;DHT22;61320;52.008;4.530;2023-04-03T14:05:43;14.36;30.31
73133;DHT22;61320;52.008;4.530;2023-04-03T14:08:10;14.38;31.18
73133;DHT22;61320;52.008;4.530;2023-04-03T14:10:37;14.42;30.73
73133;DHT22;61320;52.008;4.530;2023-04-03T14:13:03;14.45;30.55
73133;DHT22;61320;52.008;4.530;2023-04-03T14:15:31;14.47;30.67
73133;DHT22;61320;52.008;4.530;2023-04-03T14:17:57;14.54;30.66
73133;DHT22;61320;52.008;4.530;2023-04-03T14:20:26;14.63;30.52
73133;DHT22;61320;52.008;4.530;2023-04-03T14:22:52;14.69;30.08
73133;DHT22;61320;52.008;4.530;2023-04-03T14:25:20;14.65;31.09
73133;DHT22;61320;52.008;4.530;2023-04-03T14:27:50;14.63;29.96
73133;DHT22;61320;52.008;4.530;2023-04-03T14:30:28;14.56;30.83
73133;DHT22;61320;52.008;4.530;2023-04-03T14:32:55;14.54;30.54
73133;DHT22;61320;52.008;4.530;2023-04-03T14:35:21;14.49;30.20
73133;DHT22;61320;52.008;4.530;2023-04-03T14:37:52;14.45;28.64
73133;DHT22;61320;52.008;4.530;2023-04-03T14:40:25;14.44;30.62
73133;DHT22;61320;52.008;4.530;2023-04-03T14:42:52;14.40;29.75
73133;DHT22;61320;52.008;4.530;2023-04-03T14:45:20;14.28;29.18
73133;DHT22;61320;52.008;4.530;2023-04-03T14:47:52;14.33;30.29
73133;DHT22;61320;52.008;4.530;2023-04-03T14:50:24;14.44;31.53
73133;DHT22;61320;52.008;4.530;2023-04-03T14:52:52;14.48;29.86
73133;DHT22;61320;52.008;4.530;2023-04-03T14:55:21;14.57;31.51
73133;DHT22;61320;52.008;4.530;2023-04-03T14:57:47;14.58;29.64
73133;DHT22;61320;52.008;4.530;2023-04-03T15:00:21;14.64;28.88
73133;DHT22;61320;52.008;4.530;2023-04-03T15:02:47;14.61;30.49
73133;DHT22;61320;52.008;4.530;2023-04-03T15:05:14;14.57;30.07
73133;DHT22;61320;52.008;4.530;2023-04-03T15:07:49;14.60;30.53
73133;DHT22;61320;52.008;4.530;2023-04-03T15:10:22;14.65;31.48
73133;DHT22;61320;52.008;4.530;2023-04-03T15:13:07;14.71;30.13
73133;DHT22;61320;52.008;4.530;2023-04-03T15:15:35;14.72;29.24
73133;DHT22;61320;52.008;4.530;2023-04-03T15:18:02;14.75;29.92
73133;DHT22;61320;52.008;4.530;2023-04-03T15:20:30;14.77;29.21
73133;DHT22;61320;52.008;4.530;2023-04-03T15:23:01;14.71;29.20
73133;DHT22;61320;52.008;4.530;2023-04-03T15:25:27;14.72;31.49
73133;DHT22;61320;52.008;4.530;2023-04-03T15:27:56;14.84;29.51
73133;DHT22;61320;52.008;4.530;2023-04-03T15:30:22;14.85;30.25
73133;DHT22;61320;52.008;4.530;2023-04-03T15:32:48;14.88;30.59
73133;DHT22;61320;52.008;4.530;2023-04-03T15:35:14;14.84;29.69
73133;DHT22;61320;52.008;4.530;2023-04-03T15:37:39;14.85;30.06
73133;DHT22;61320;52.008;4.530;2023-04-03T15:40:06;14.91;30.51
73133;DHT22;61320;52.008;4.530;2023-04-03T15:42:32;14.99;29.95
73133;DHT22;61320;52.008;4.530;2023-04-03T15:44:57;14.98;29.78
73133;DHT22;61320;52.008;4.530;2023-04-03T15:47:24;14.88;30.09
73133;DHT22;61320;52.008;4.530;2023-04-03T15:49:50;14.79;30.65
73133;DHT22;61320;52.008;4.530;2023-04-03T15:52:15;14.77;29.83
73133;DHT22;61320;52.008;4.530;2023-04-03T15:54:41;14.68;29.75
73133;DHT22;61320;52.008;4.530;2023-04-03T15:57:08;14.60;29.56
73133;DHT22;61320;52.008;4.530;2023-04-03T15:59:34;14.61;29.21
73133;DHT22;61320;52.008;4.530;2023-04-03T16:02:04;14.74;30.01
73133;DHT22;61320;52.008;4.530;2023-04-03T16:04:31;14.72;29.79
73133;DHT22;61320;52.008;4.530;2023-04-03T16:07:01;14.68;30.89
73133;DHT22;61320;52.008;4.530;2023-04-03T16:09:26;14.56;30.29
73133;DHT22;61320;52.008;4.530;2023-04-03T16:11:52;14.45;30.67
73133;DHT22;61320;52.008;4.530;2023-04-03T16:14:17;14.27;31.00
73133;DHT22;61320;52.008;4.530;2023-04-03T16:16:43;14.12;30.23
73133;DHT22;61320;52.008;4.530;2023-04-03T16:19:09;13.99;30.56
73133;DHT22;61320;52.008;4.530;2023-04-03T16:21:34;13.83;30.38
73133;DHT22;61320;52.008;4.530;2023-04-03T16:24:01;13.80;30.72
73133;DHT22;61320;52.008;4.530;2023-04-03T16:26:26;13.59;31.22
73133;DHT22;61320;52.008;4.530;2023-04-03T16:28:53;13.51;31.36
73133;DHT22;61320;52.008;4.530;2023-04-03T16:31:19;13.39;31.61
73133;DHT22;61320;52.008;4.530;2023-04-03T16:33:45;13.34;31.53
73133;DHT22;61320;52.008;4.530;2023-04-03T16:36:10;13.24;31.33
73133;DHT22;61320;52.008;4.530;2023-04-03T16:38:36;13.22;32.47
73133;DHT22;61320;52.008;4.530;2023-04-03T16:41:01;13.12;33.65
73133;DHT22;61320;52.008;4.530;2023-04-03T16:43:30;13.06;33.31
73133;DHT22;61320;52.008;4.530;2023-04-03T16:45:56;12.99;33.35
73133;DHT22;61320;52.008;4.530;2023-04-03T16:48:22;12.84;33.75
73133;DHT22;61320;52.008;4.530;2023-04-03T16:50:49;12.70;33.65
73133;DHT22;61320;52.008;4.530;2023-04-03T16:53:19;12.59;33.59
73133;DHT22;61320;52.008;4.530;2023-04-03T16:55:44;12.50;33.96
73133;DHT22;61320;52.008;4.530;2023-04-03T16:58:10;12.41;34.44
73133;DHT22;61320;52.008;4.530;2023-04-03T17:00:36;12.29;34.51
73133;DHT22;61320;52.008;4.530;2023-04-03T17:03:02;12.25;34.33
73133;DHT22;61320;52.008;4.530;2023-04-03T17:05:27;12.18;34.42
73133;DHT22;61320;52.008;4.530;2023-04-03T17:07:52;12.08;35.34
73133;DHT22;61320;52.008;4.530;2023-04-03T17:10:18;12.04;35.86
73133;DHT22;61320;52.008;4.530;2023-04-03T17:12:43;11.94;36.21
73133;DHT22;61320;52.008;4.530;2023-04-03T17:15:09;11.84;37.81
73133;DHT22;61320;52.008;4.530;2023-04-03T17:17:35;11.84;38.51
73133;DHT22;61320;52.008;4.530;2023-04-03T17:20:02;11.80;38.38
73133;DHT22;61320;52.008;4.530;2023-04-03T17:22:28;11.78;38.66
73133;DHT22;61320;52.008;4.530;2023-04-03T17:24:54;11.75;38.64
73133;DHT22;61320;52.008;4.530;2023-04-03T17:27:20;11.66;39.43
73133;DHT22;61320;52.008;4.530;2023-04-03T17:29:46;11.52;38.44
73133;DHT22;61320;52.008;4.530;2023-04-03T17:32:11;11.39;38.91
73133;DHT22;61320;52.008;4.530;2023-04-03T17:34:37;11.27;40.98
73133;DHT22;61320;52.008;4.530;2023-04-03T17:37:03;11.19;40.59
73133;DHT22;61320;52.008;4.530;2023-04-03T17:39:28;11.16;42.11
73133;DHT22;61320;52.008;4.530;2023-04-03T17:41:54;11.12;41.41
73133;DHT22;61320;52.008;4.530;2023-04-03T17:44:20;11.05;41.02
73133;DHT22;61320;52.008;4.530;2023-04-03T17:46:46;10.99;40.79